< < Back
Terminal Aerodrome Forecast


Current Version              Previous Versions:   1  2  3  4  5  6  7  8  9  

Terminal Aerodrome Forecast

437
FTUS44 KHUN 231120
TAFHSV
TAF
KHSV 231120Z 2312/2412 VRB03KT P6SM SCT050 SCT250
     FM231500 VRB04KT P6SM SCT040 BKN250
     FM232100 27005KT P6SM SCT035 BKN120
     FM240100 VRB03KT P6SM SCT250=

Latest METAR

267
SAUS80 KWBC 241200 RRB
MTRHSV
METAR KHSV 241153Z 11004KT 10SM FEW150 FEW250 23/20 A3022 RMK AO2 SLP225
T02280200 10244 20222 53014


USA.gov is the U.S. government's official web portal to all federal, state and local government web resources and services.